createdAt,value
2019-05-06T00:03:14.450Z,101178.39
2019-05-06T00:08:17.870Z,101178.47
2019-05-06T00:13:21.266Z,101179.75
2019-05-06T00:18:24.683Z,101188.02
2019-05-06T00:23:32.452Z,101178.90
2019-05-06T00:28:37.501Z,101177.99
2019-05-06T00:33:40.921Z,101185.77
2019-05-06T00:38:46.045Z,101179.99
2019-05-06T00:43:49.453Z,101182.95
2019-05-06T00:48:54.260Z,101175.06
2019-05-06T00:53:59.512Z,101176.37
2019-05-06T00:59:03.986Z,101177.66
2019-05-06T01:04:07.485Z,101174.98
2019-05-06T01:09:14.080Z,101178.34
2019-05-06T01:14:35.349Z,101180.41
2019-05-06T01:19:38.880Z,101179.44
2019-05-06T01:24:43.933Z,101184.06
2019-05-06T01:29:47.492Z,101174.92
2019-05-06T01:34:50.911Z,101179.22
2019-05-06T01:40:05.376Z,101174.73
2019-05-06T01:45:10.059Z,101181.45
2019-05-06T01:50:14.114Z,101183.17
2019-05-06T01:55:17.690Z,101178.85
2019-05-06T02:00:23.727Z,101183.60
2019-05-06T02:05:27.331Z,101182.73
2019-05-06T02:10:30.774Z,101180.16
2019-05-06T02:15:34.635Z,101176.30
2019-05-06T02:20:39.751Z,101178.04
2019-05-06T02:25:44.814Z,101185.36
2019-05-06T02:30:54.829Z,101180.25
2019-05-06T02:35:59.499Z,101187.19
2019-05-06T02:41:03.675Z,101184.08
2019-05-06T02:46:07.267Z,101179.05
2019-05-06T02:51:13.333Z,101183.03
2019-05-06T02:56:17.028Z,101182.18
2019-05-06T03:01:23.353Z,101176.55
2019-05-06T03:06:26.320Z,101177.05
2019-05-06T03:11:29.748Z,101181.78
2019-05-06T03:16:33.596Z,101171.91
2019-05-06T03:21:45.012Z,101172.45
2019-05-06T03:26:53.398Z,101167.76
2019-05-06T03:31:56.959Z,101168.55
2019-05-06T03:37:00.535Z,101165.43
2019-05-06T03:42:04.789Z,101170.16
2019-05-06T03:47:10.020Z,101171.12
2019-05-06T03:52:13.723Z,101172.22
2019-05-06T03:57:18.673Z,101166.16
2019-05-06T04:02:24.026Z,101178.62
2019-05-06T04:07:28.056Z,101175.58
2019-05-06T04:12:34.621Z,101174.73
2019-05-06T04:17:48.829Z,101169.97
2019-05-06T04:23:06.433Z,101173.30
2019-05-06T04:28:17.891Z,101171.27
2019-05-06T04:33:23.673Z,101167.94
2019-05-06T04:38:27.078Z,101166.42
2019-05-06T04:43:33.659Z,101170.59
2019-05-06T04:48:36.022Z,101173.19
2019-05-06T04:53:39.434Z,101169.67
2019-05-06T04:58:43.924Z,101174.48
2019-05-06T05:03:47.554Z,101181.48
2019-05-06T05:08:53.202Z,101176.81
2019-05-06T05:14:02.834Z,101179.94
2019-05-06T05:19:12.106Z,101179.28
2019-05-06T05:24:15.463Z,101191.02
2019-05-06T05:29:18.927Z,101188.88
2019-05-06T05:34:26.648Z,101195.66
2019-05-06T05:39:27.670Z,101206.99
2019-05-06T05:44:32.744Z,101199.75
2019-05-06T05:49:37.829Z,101201.04
2019-05-06T05:54:42.354Z,101204.62
2019-05-06T05:59:45.989Z,101202.62
2019-05-06T06:04:54.803Z,101203.64
2019-05-06T06:10:02.705Z,101196.81
2019-05-06T06:15:08.969Z,101191.74
2019-05-06T06:20:32.754Z,101195.84
2019-05-06T06:25:36.787Z,101197.73
2019-05-06T06:30:47.743Z,101190.59
2019-05-06T06:35:55.401Z,101190.26
2019-05-06T06:40:58.874Z,101184.81
2019-05-06T06:46:02.555Z,101188.84
2019-05-06T06:51:06.077Z,101195.06
2019-05-06T06:56:21.880Z,101201.22
2019-05-06T07:01:29.399Z,101202.23
2019-05-06T07:06:34.523Z,101201.93
2019-05-06T07:11:38.093Z,101198.09
2019-05-06T07:16:43.049Z,101202.58
2019-05-06T07:21:52.258Z,101206.64
2019-05-06T07:26:59.886Z,101197.67
2019-05-06T07:32:03.314Z,101199.44
2019-05-06T07:37:06.728Z,101202.02
2019-05-06T07:42:17.822Z,101199.92
2019-05-06T07:47:23.952Z,101200.39
2019-05-06T07:52:27.572Z,101200.41
2019-05-06T07:57:32.981Z,101200.45
2019-05-06T08:02:36.193Z,101198.22
2019-05-06T08:07:39.613Z,101194.28
2019-05-06T08:12:43.049Z,101188.59
2019-05-06T08:17:46.475Z,101183.39
2019-05-06T08:23:03.556Z,101181.07
2019-05-06T08:28:07.011Z,101186.60
2019-05-06T08:33:12.718Z,101192.59
2019-05-06T08:38:15.656Z,101188.00
2019-05-06T08:43:19.089Z,101180.81
2019-05-06T08:48:22.515Z,101183.52
2019-05-06T08:53:27.579Z,101184.59
2019-05-06T08:58:47.442Z,101177.91
2019-05-06T09:04:06.421Z,101179.20
2019-05-06T09:08:56.975Z,101165.80
2019-05-06T09:14:03.199Z,101167.31
2019-05-06T09:19:05.927Z,101162.53
2019-05-06T09:24:09.409Z,101157.42
2019-05-06T09:29:17.311Z,101157.58
2019-05-06T09:34:34.392Z,101155.92
2019-05-06T09:39:37.944Z,101149.16
2019-05-06T09:44:42.880Z,101150.73
2019-05-06T09:49:47.973Z,101144.80
2019-05-06T09:54:58.727Z,101146.90
2019-05-06T10:00:04.573Z,101140.77
2019-05-06T10:05:07.443Z,101135.75
2019-05-06T10:10:10.991Z,101132.63
2019-05-06T10:15:16.163Z,101139.14
2019-05-06T10:20:22.201Z,101140.16
2019-05-06T10:25:24.952Z,101133.00
2019-05-06T10:30:28.385Z,101126.34
2019-05-06T10:35:32.380Z,101130.55
2019-05-06T10:40:56.238Z,101134.56
2019-05-06T10:45:44.112Z,101130.67
2019-05-06T10:50:49.478Z,101123.70
2019-05-06T10:55:54.800Z,101113.95
2019-05-06T11:00:59.872Z,101106.42
2019-05-06T11:06:03.299Z,101091.23
2019-05-06T11:11:15.346Z,101101.75
2019-05-06T11:16:12.975Z,101090.19
2019-05-06T11:21:16.522Z,101098.34
2019-05-06T11:26:19.944Z,101091.36
2019-05-06T11:36:57.653Z,101080.35
2019-05-06T11:42:22.821Z,101072.39
2019-05-06T11:47:06.251Z,101078.17
2019-05-06T11:52:09.683Z,101070.62
2019-05-06T11:57:13.108Z,101069.75
2019-05-06T12:02:20.904Z,101059.97
2019-05-06T12:07:24.877Z,101066.09
2019-05-06T12:12:28.482Z,101060.88
2019-05-06T12:17:31.899Z,101063.28
2019-05-06T12:22:38.242Z,101070.47
2019-05-06T12:27:44.175Z,101064.19
2019-05-06T12:38:26.715Z,101068.78
2019-05-06T12:43:24.386Z,101061.59
2019-05-06T12:48:29.502Z,101059.43
2019-05-06T12:53:32.938Z,101053.47
2019-05-06T12:58:36.361Z,101060.87
2019-05-06T13:03:39.880Z,101062.23
2019-05-06T13:08:56.642Z,101051.13
2019-05-06T13:13:57.404Z,101058.31
2019-05-06T13:18:54.962Z,101059.42
2019-05-06T13:24:04.622Z,101060.52
2019-05-06T13:29:10.027Z,101072.05
2019-05-06T13:34:17.665Z,101066.66
2019-05-06T13:39:23.773Z,101066.61
2019-05-06T13:44:26.330Z,101061.00
2019-05-06T13:49:31.468Z,101060.23
2019-05-06T13:54:34.991Z,101044.30
2019-05-06T13:59:38.447Z,101042.66
2019-05-06T14:04:44.226Z,101047.73
2019-05-06T14:09:47.116Z,101038.52
2019-05-06T14:14:52.738Z,101042.20
2019-05-06T14:19:55.703Z,101040.25
2019-05-06T14:25:00.788Z,101046.22
2019-05-06T14:30:16.710Z,101045.91
2019-05-06T14:35:20.232Z,101037.95
2019-05-06T14:40:25.340Z,101033.61
2019-05-06T14:45:28.797Z,101036.19
2019-05-06T14:50:44.424Z,101030.33
2019-05-06T14:55:38.920Z,101033.77
2019-05-06T15:00:42.687Z,101034.61
2019-05-06T15:05:46.112Z,101026.47
2019-05-06T15:10:49.699Z,101023.00
2019-05-06T15:15:53.281Z,101015.31
2019-05-06T15:20:56.727Z,101014.45
2019-05-06T15:26:00.183Z,101011.52
2019-05-06T15:31:05.248Z,101009.65
2019-05-06T15:36:12.709Z,101007.59
2019-05-06T15:41:15.500Z,101034.51
2019-05-06T15:46:18.938Z,101036.38
2019-05-06T15:51:24.007Z,101020.25
2019-05-06T15:56:27.434Z,101011.39
2019-05-06T16:01:33.211Z,101009.17
2019-05-06T16:06:36.048Z,101018.22
2019-05-06T16:11:39.474Z,101018.12
2019-05-06T16:16:43.102Z,101019.00
2019-05-06T16:21:46.530Z,101012.49
2019-05-06T16:26:52.216Z,101012.20
2019-05-06T16:31:55.198Z,101003.49
2019-05-06T16:36:58.652Z,101010.45
2019-05-06T16:42:03.616Z,101001.08
2019-05-06T16:47:07.297Z,101003.77
2019-05-06T16:52:12.903Z,101007.11
2019-05-06T16:57:20.237Z,101015.23
2019-05-06T17:02:26.659Z,101009.53
2019-05-06T17:07:30.158Z,101011.73
2019-05-06T17:34:36.336Z,101014.23
2019-05-06T17:44:29.656Z,101014.68
2019-05-06T17:49:37.370Z,101016.47
2019-05-06T17:54:42.899Z,101024.98
2019-05-06T17:59:46.274Z,101035.02
2019-05-06T18:04:49.863Z,101032.93
2019-05-06T18:09:53.332Z,101045.63
2019-05-06T18:14:58.292Z,101047.88
2019-05-06T18:20:02.956Z,101040.05
2019-05-06T18:25:06.889Z,101034.55
2019-05-06T18:30:22.401Z,101042.43
2019-05-06T18:35:16.361Z,101037.72
2019-05-06T18:40:19.935Z,101040.91
2019-05-06T18:45:23.449Z,101033.03
2019-05-06T18:50:26.904Z,101031.03
2019-05-06T18:55:32.546Z,101042.33
2019-05-06T19:00:35.791Z,101041.45
2019-05-06T19:05:42.940Z,101029.33
2019-05-06T19:10:46.499Z,101040.19
2019-05-06T19:15:50.016Z,101034.63
2019-05-06T19:20:53.889Z,101042.00
2019-05-06T19:25:57.307Z,101048.09
2019-05-06T19:31:03.834Z,101059.83
2019-05-06T19:36:07.323Z,101057.66
2019-05-06T19:41:12.688Z,101062.88
2019-05-06T19:46:15.916Z,101055.06
2019-05-06T19:51:19.398Z,101064.17
2019-05-06T19:56:23.310Z,101066.76
2019-05-06T20:01:26.864Z,101091.50
2019-05-06T20:06:40.641Z,101091.94
2019-05-06T20:11:45.013Z,101094.95
2019-05-06T20:16:48.529Z,101098.39
2019-05-06T20:21:52.678Z,101097.53
2019-05-06T20:26:56.287Z,101094.49
2019-05-06T20:31:59.710Z,101106.92
2019-05-06T20:37:03.232Z,101103.07
2019-05-06T20:42:08.574Z,101093.97
2019-05-06T20:47:15.142Z,101099.54
2019-05-06T20:52:22.999Z,101097.63
2019-05-06T20:57:28.294Z,101086.49
2019-05-06T21:02:32.662Z,101087.77
2019-05-06T21:07:38.953Z,101086.52
2019-05-06T21:12:53.241Z,101091.69
2019-05-06T21:18:15.540Z,101089.58
2019-05-06T21:23:18.961Z,101090.02
2019-05-06T21:28:23.735Z,101096.50
2019-05-06T21:33:27.413Z,101090.92
2019-05-06T21:38:30.840Z,101090.94
2019-05-06T21:43:46.029Z,101091.83
2019-05-06T21:48:39.432Z,101084.89
2019-05-06T21:53:42.857Z,101080.56
2019-05-06T21:58:46.277Z,101075.33
2019-05-06T22:03:49.701Z,101086.16
2019-05-06T22:08:53.197Z,101080.95
2019-05-06T22:14:00.756Z,101078.36
2019-05-06T22:19:02.547Z,101082.25
2019-05-06T22:24:06.163Z,101071.00
2019-05-06T22:29:09.589Z,101074.89
2019-05-06T22:34:15.842Z,101079.69
2019-05-06T22:39:18.612Z,101083.08
2019-05-06T22:44:22.807Z,101075.73
2019-05-06T22:49:26.255Z,101073.58
2019-05-06T22:54:31.893Z,101071.82
2019-05-06T22:59:34.858Z,101070.52
2019-05-06T23:04:39.992Z,101071.36
2019-05-06T23:09:43.484Z,101078.70
2019-05-06T23:14:46.897Z,101080.00
2019-05-06T23:19:52.704Z,101087.41
2019-05-06T23:24:55.485Z,101093.05
2019-05-06T23:29:58.903Z,101088.69
2019-05-06T23:35:03.283Z,101089.15
2019-05-06T23:40:43.389Z,101093.05
2019-05-06T23:46:05.403Z,101092.61
2019-05-06T23:51:45.284Z,101092.18
2019-05-06T23:56:47.559Z,101086.55
